createdAt,value
2019-02-07T00:02:33.963Z,127.67
2019-02-07T00:06:40.438Z,125.27
2019-02-07T00:10:48.248Z,115.30
2019-02-07T00:15:00.358Z,126.60
2019-02-07T00:19:09.162Z,104.97
2019-02-07T00:23:17.864Z,120.13
2019-02-07T00:27:25.645Z,97.03
2019-02-07T00:35:39.741Z,128.73
2019-02-07T00:39:47.527Z,124.83
2019-02-07T00:43:55.112Z,112.70
2019-02-07T00:48:02.127Z,126.17
2019-02-07T00:52:09.059Z,120.80
2019-02-07T00:56:15.189Z,108.53
2019-02-07T01:00:23.185Z,110.53
2019-02-07T01:04:29.586Z,117.50
2019-02-07T01:08:57.023Z,112.87
2019-02-07T01:13:03.603Z,112.43
2019-02-07T01:17:11.083Z,119.33
2019-02-07T01:21:19.070Z,128.83
2019-02-07T01:25:26.477Z,111.03
2019-02-07T01:33:41.759Z,123.30
2019-02-07T01:37:48.327Z,113.87
2019-02-07T01:41:53.998Z,111.43
2019-02-07T01:46:00.358Z,115.13
2019-02-07T01:50:09.770Z,113.07
2019-02-07T01:54:35.543Z,121.60
2019-02-07T01:58:43.103Z,121.80
2019-02-07T02:07:00.754Z,110.40
2019-02-07T02:11:07.144Z,111.57
2019-02-07T02:15:24.009Z,115.80
2019-02-07T02:19:22.795Z,111.10
2019-02-07T02:23:34.437Z,113.60
2019-02-07T02:27:41.920Z,101.37
2019-02-07T02:31:48.419Z,119.70
2019-02-07T02:35:55.081Z,109.00
2019-02-07T02:40:03.023Z,103.43
2019-02-07T02:44:13.351Z,105.53
2019-02-07T02:48:19.994Z,110.77
2019-02-07T02:52:27.700Z,112.57
2019-02-07T02:57:16.147Z,103.67
2019-02-07T03:01:30.461Z,115.17
2019-02-07T03:05:48.817Z,105.50
2019-02-07T03:10:15.207Z,105.77
2019-02-07T03:14:34.610Z,101.90
2019-02-07T03:18:55.659Z,83.83
2019-02-07T03:23:14.817Z,86.33
2019-02-07T03:27:41.883Z,90.17
2019-02-07T03:31:56.329Z,94.07
2019-02-07T03:36:15.414Z,82.20
2019-02-07T03:40:45.614Z,95.23
2019-02-07T03:45:13.176Z,89.80
2019-02-07T03:49:36.071Z,65.33
2019-02-07T03:54:01.271Z,91.67
2019-02-07T03:58:15.587Z,82.20
2019-02-07T04:02:34.208Z,83.33
2019-02-07T04:06:56.426Z,90.00
2019-02-07T04:11:15.339Z,79.43
2019-02-07T04:15:40.974Z,89.03
2019-02-07T04:20:06.182Z,92.27
2019-02-07T04:24:35.208Z,88.60
2019-02-07T04:29:01.987Z,90.40
2019-02-07T04:33:27.622Z,91.90
2019-02-07T04:37:54.217Z,78.10
2019-02-07T04:42:22.564Z,73.23
2019-02-07T04:46:47.747Z,87.77
2019-02-07T04:51:11.309Z,84.47
2019-02-07T04:55:38.034Z,90.53
2019-02-07T04:59:54.455Z,74.87
2019-02-07T05:04:20.506Z,84.23
2019-02-07T05:08:34.351Z,76.37
2019-02-07T05:17:16.159Z,89.40
2019-02-07T05:21:34.146Z,80.33
2019-02-07T05:25:58.671Z,87.43
2019-02-07T05:30:13.861Z,85.93
2019-02-07T05:34:36.554Z,76.43
2019-02-07T05:38:50.777Z,80.07
2019-02-07T05:43:20.316Z,81.67
2019-02-07T05:47:35.602Z,85.37
2019-02-07T05:52:01.659Z,74.67
2019-02-07T06:00:34.425Z,86.70
2019-02-07T06:04:48.271Z,79.33
2019-02-07T06:08:55.218Z,74.17
2019-02-07T06:13:14.064Z,73.27
2019-02-07T06:17:39.986Z,80.37
2019-02-07T06:21:55.311Z,79.20
2019-02-07T06:26:14.521Z,68.13
2019-02-07T06:30:31.068Z,72.30
2019-02-07T06:34:55.628Z,66.63
2019-02-07T06:39:14.055Z,73.07
2019-02-07T06:43:27.704Z,74.47
2019-02-07T06:52:10.527Z,82.77
2019-02-07T07:00:40.164Z,63.63
2019-02-07T07:05:05.377Z,78.80
2019-02-07T07:09:32.257Z,64.30
2019-02-07T07:13:50.087Z,72.33
2019-02-07T07:17:59.116Z,78.73
2019-02-07T07:22:25.239Z,87.53
2019-02-07T07:26:39.450Z,72.13
2019-02-07T07:31:06.385Z,67.57
2019-02-07T07:35:21.439Z,65.53
2019-02-07T07:39:39.061Z,77.67
2019-02-07T07:44:04.650Z,70.60
2019-02-07T07:48:29.951Z,68.00
2019-02-07T07:53:00.925Z,64.80
2019-02-07T08:01:40.509Z,71.17
2019-02-07T08:06:00.641Z,65.77
2019-02-07T08:10:28.157Z,61.80
2019-02-07T08:14:53.556Z,74.47
2019-02-07T08:18:59.343Z,64.53
2019-02-07T08:23:20.765Z,55.43
2019-02-07T08:27:39.702Z,49.43
2019-02-07T08:32:00.421Z,52.97
2019-02-07T08:36:19.587Z,42.73
2019-02-07T08:40:45.757Z,49.50
2019-02-07T08:45:11.769Z,49.23
2019-02-07T08:49:40.785Z,47.97
2019-02-07T08:53:59.059Z,50.53
2019-02-07T08:58:18.958Z,50.30
2019-02-07T09:02:35.212Z,54.57
2019-02-07T09:07:21.689Z,46.23
2019-02-07T09:11:40.762Z,50.70
2019-02-07T09:16:00.435Z,45.57
2019-02-07T09:20:20.403Z,48.27
2019-02-07T09:24:40.733Z,49.30
2019-02-07T09:29:00.833Z,47.03
2019-02-07T09:33:19.030Z,44.17
2019-02-07T09:37:45.167Z,41.73
2019-02-07T09:42:10.310Z,38.87
2019-02-07T09:46:19.395Z,45.93
2019-02-07T09:50:44.659Z,42.00
2019-02-07T09:55:00.315Z,41.87
2019-02-07T09:59:19.269Z,47.13
2019-02-07T10:03:45.533Z,47.83
2019-02-07T10:07:59.709Z,46.37
2019-02-07T10:12:26.265Z,46.60
2019-02-07T10:16:51.615Z,41.97
2019-02-07T10:25:39.087Z,46.63
2019-02-07T10:29:59.406Z,45.70
2019-02-07T10:34:26.254Z,44.33
2019-02-07T10:38:39.364Z,50.23
2019-02-07T10:43:00.382Z,46.73
2019-02-07T10:47:21.138Z,52.20
2019-02-07T10:51:39.235Z,48.40
2019-02-07T10:56:07.891Z,46.27
2019-02-07T11:00:36.315Z,54.97
2019-02-07T11:05:07.119Z,48.20
2019-02-07T11:09:33.583Z,51.97
2019-02-07T11:13:41.294Z,46.40
2019-02-07T11:22:20.037Z,44.20
2019-02-07T11:30:59.316Z,44.77
2019-02-07T11:35:26.315Z,52.37
2019-02-07T11:39:40.911Z,41.57
2019-02-07T11:44:06.454Z,50.83
2019-02-07T11:48:31.910Z,42.80
2019-02-07T11:57:25.113Z,48.20
2019-02-07T12:01:50.587Z,37.27
2019-02-07T12:06:16.197Z,46.83
2019-02-07T12:10:42.262Z,47.50
2019-02-07T12:15:08.097Z,42.80
2019-02-07T12:19:33.364Z,47.33
2019-02-07T12:24:00.789Z,40.70
2019-02-07T12:28:27.081Z,43.03
2019-02-07T12:32:40.554Z,51.93
2019-02-07T12:36:59.185Z,48.27
2019-02-07T12:41:26.415Z,44.83
2019-02-07T12:45:39.304Z,51.37
2019-02-07T12:50:02.451Z,49.13
2019-02-07T12:54:20.710Z,58.20
2019-02-07T12:58:44.084Z,50.80
2019-02-07T13:03:09.296Z,49.83
2019-02-07T13:07:45.196Z,49.80
2019-02-07T13:12:10.740Z,68.53
2019-02-07T13:16:36.153Z,60.73
2019-02-07T13:25:20.534Z,50.70
2019-02-07T13:29:47.019Z,48.27
2019-02-07T13:34:13.280Z,50.07
2019-02-07T13:38:39.605Z,53.57
2019-02-07T13:43:01.889Z,50.70
2019-02-07T13:47:19.080Z,55.30
2019-02-07T13:51:36.132Z,55.17
2019-02-07T13:56:01.155Z,48.50
2019-02-07T14:00:23.333Z,56.60
2019-02-07T14:04:47.342Z,46.77
2019-02-07T14:08:59.506Z,47.03
2019-02-07T14:13:24.876Z,46.83
2019-02-07T14:17:41.368Z,53.00
2019-02-07T14:21:59.511Z,63.87
2019-02-07T14:26:19.456Z,83.87
2019-02-07T14:30:45.012Z,61.33
2019-02-07T14:35:11.281Z,53.40
2019-02-07T14:44:25.360Z,48.97
2019-02-07T14:48:31.676Z,51.27
2019-02-07T14:52:40.872Z,53.40
2019-02-07T14:56:47.250Z,50.70
2019-02-07T15:00:53.541Z,51.87
2019-02-07T15:05:02.361Z,48.03
2019-02-07T15:09:24.158Z,59.23
2019-02-07T15:13:31.298Z,53.67
2019-02-07T15:17:39.508Z,69.17
2019-02-07T15:21:45.793Z,53.67
2019-02-07T15:25:52.315Z,57.30
2019-02-07T15:34:45.871Z,55.43
2019-02-07T15:38:52.221Z,48.73
2019-02-07T15:43:02.605Z,53.70
2019-02-07T15:47:11.006Z,50.67
2019-02-07T15:51:19.845Z,56.40
2019-02-07T15:55:26.753Z,58.20
2019-02-07T15:59:40.393Z,44.97
2019-02-07T16:03:56.156Z,45.97
2019-02-07T16:08:02.810Z,50.93
2019-02-07T16:12:09.163Z,52.33
2019-02-07T16:16:20.237Z,59.87
2019-02-07T16:20:28.536Z,54.23
2019-02-07T16:24:35.016Z,50.07
2019-02-07T16:28:42.165Z,48.30
2019-02-07T16:32:48.944Z,45.30
2019-02-07T16:36:55.620Z,47.53
2019-02-07T16:41:22.410Z,50.30
2019-02-07T16:45:29.818Z,52.77
2019-02-07T16:49:40.366Z,52.40
2019-02-07T16:53:46.751Z,53.03
2019-02-07T16:57:54.129Z,48.20
2019-02-07T17:02:00.791Z,46.50
2019-02-07T17:06:08.180Z,49.33
2019-02-07T17:14:27.652Z,48.13
2019-02-07T17:18:34.254Z,52.93
2019-02-07T17:22:41.545Z,57.77
2019-02-07T17:26:47.925Z,57.97
2019-02-07T17:30:54.586Z,53.07
2019-02-07T17:35:05.208Z,61.07
2019-02-07T17:39:12.041Z,60.87
2019-02-07T17:43:19.589Z,57.70
2019-02-07T17:47:26.664Z,58.50
2019-02-07T17:51:33.147Z,79.03
2019-02-07T17:55:43.445Z,71.13
2019-02-07T17:59:49.954Z,66.70
2019-02-07T18:03:59.062Z,67.90
2019-02-07T18:08:07.135Z,67.93
2019-02-07T18:12:13.801Z,68.03
2019-02-07T18:16:22.050Z,65.43
2019-02-07T18:20:28.872Z,80.70
2019-02-07T18:24:35.281Z,68.00
2019-02-07T18:33:46.094Z,74.17
2019-02-07T18:37:53.341Z,61.67
2019-02-07T18:41:59.834Z,61.87
2019-02-07T18:46:06.540Z,63.77
2019-02-07T18:50:12.161Z,62.83
2019-02-07T18:54:18.487Z,68.53
2019-02-07T18:58:24.913Z,69.93
2019-02-07T19:02:33.136Z,75.30
2019-02-07T19:06:40.619Z,69.93
2019-02-07T19:15:12.329Z,67.87
2019-02-07T19:19:18.648Z,62.87
2019-02-07T19:23:25.543Z,59.30
2019-02-07T19:27:33.393Z,68.33
2019-02-07T19:31:40.770Z,61.00
2019-02-07T19:35:55.958Z,60.50
2019-02-07T19:40:02.435Z,70.80
2019-02-07T19:44:14.471Z,69.00
2019-02-07T19:48:21.311Z,71.63
2019-02-07T19:52:28.164Z,76.63
2019-02-07T19:56:55.740Z,76.10
2019-02-07T20:01:02.159Z,82.37
2019-02-07T20:05:16.687Z,74.73
2019-02-07T20:09:43.312Z,72.33
2019-02-07T20:13:51.392Z,75.67
2019-02-07T20:17:59.934Z,72.37
2019-02-07T20:22:19.522Z,76.20
2019-02-07T20:26:17.100Z,71.63
2019-02-07T20:30:31.122Z,77.23
2019-02-07T20:34:39.004Z,73.30
2019-02-07T20:38:45.955Z,65.20
2019-02-07T20:42:52.626Z,84.93
2019-02-07T20:47:06.755Z,82.97
2019-02-07T20:51:13.162Z,80.40
2019-02-07T20:59:28.023Z,82.70
2019-02-07T21:03:35.302Z,82.57
2019-02-07T21:07:43.122Z,87.33
2019-02-07T21:11:50.631Z,86.57
2019-02-07T21:15:57.610Z,85.73
2019-02-07T21:20:07.544Z,77.60
2019-02-07T21:24:14.245Z,92.17
2019-02-07T21:28:23.717Z,87.30
2019-02-07T21:32:31.305Z,82.90
2019-02-07T21:36:39.298Z,92.27
2019-02-07T21:41:05.204Z,87.93
2019-02-07T21:45:13.161Z,92.43
2019-02-07T21:49:24.611Z,91.53
2019-02-07T21:53:29.378Z,97.07
2019-02-07T21:57:36.308Z,98.67
2019-02-07T22:01:43.497Z,101.03
2019-02-07T22:05:49.921Z,93.40
2019-02-07T22:09:59.390Z,99.93
2019-02-07T22:14:07.742Z,98.37
2019-02-07T22:18:14.403Z,93.40
2019-02-07T22:26:28.900Z,94.70
2019-02-07T22:30:35.913Z,92.77
2019-02-07T22:34:43.621Z,98.37
2019-02-07T22:38:49.975Z,107.57
2019-02-07T22:42:57.933Z,102.93
2019-02-07T22:47:04.838Z,97.00
2019-02-07T22:51:11.363Z,104.50
2019-02-07T22:55:18.303Z,97.90
2019-02-07T22:59:45.887Z,95.53
2019-02-07T23:03:54.023Z,92.33
2019-02-07T23:08:03.660Z,95.87
2019-02-07T23:12:10.540Z,93.27
2019-02-07T23:16:18.134Z,86.50
2019-02-07T23:20:43.770Z,91.70
2019-02-07T23:24:50.611Z,89.33
2019-02-07T23:28:56.914Z,90.93
2019-02-07T23:33:09.248Z,89.03
2019-02-07T23:37:15.707Z,83.93
2019-02-07T23:41:22.808Z,88.77
2019-02-07T23:45:29.102Z,91.57
2019-02-07T23:49:36.410Z,92.70
2019-02-07T23:57:49.446Z,90.43
